sensor_id;sensor_type;location;lat;lon;timestamp;pressure;altitude;pressure_sealevel;temperature;humidity
58662;BME280;44432;49.786;22.760;2023-04-23T00:01:38;99206.05;;;5.24;73.31
58662;BME280;44432;49.786;22.760;2023-04-23T00:04:11;99204.92;;;5.21;73.37
58662;BME280;44432;49.786;22.760;2023-04-23T00:06:43;99197.40;;;5.17;73.39
58662;BME280;44432;49.786;22.760;2023-04-23T00:09:15;99197.40;;;5.14;73.45
58662;BME280;44432;49.786;22.760;2023-04-23T00:11:48;99200.93;;;5.11;73.63
58662;BME280;44432;49.786;22.760;2023-04-23T00:14:19;99202.58;;;5.08;73.74
58662;BME280;44432;49.786;22.760;2023-04-23T00:16:51;99203.45;;;5.05;73.71
58662;BME280;44432;49.786;22.760;2023-04-23T00:19:21;99204.42;;;5.02;73.87
58662;BME280;44432;49.786;22.760;2023-04-23T00:21:52;99201.79;;;5.01;73.93
58662;BME280;44432;49.786;22.760;2023-04-23T00:24:22;99196.59;;;5.01;73.93
58662;BME280;44432;49.786;22.760;2023-04-23T00:26:53;99196.86;;;5.00;74.13
58662;BME280;44432;49.786;22.760;2023-04-23T00:29:24;99196.12;;;4.99;74.13
58662;BME280;44432;49.786;22.760;2023-04-23T00:31:54;99191.89;;;4.96;74.13
58662;BME280;44432;49.786;22.760;2023-04-23T00:34:26;99196.23;;;4.96;74.30
58662;BME280;44432;49.786;22.760;2023-04-23T00:36:56;99192.64;;;4.92;74.14
58662;BME280;44432;49.786;22.760;2023-04-23T00:39:27;99195.47;;;4.91;74.26
58662;BME280;44432;49.786;22.760;2023-04-23T00:41:58;99194.26;;;4.88;74.51
58662;BME280;44432;49.786;22.760;2023-04-23T00:44:35;99190.20;;;4.82;74.33
58662;BME280;44432;49.786;22.760;2023-04-23T00:47:06;99191.90;;;4.81;74.54
58662;BME280;44432;49.786;22.760;2023-04-23T00:49:37;99192.99;;;4.79;74.74
58662;BME280;44432;49.786;22.760;2023-04-23T00:52:08;99190.96;;;4.77;74.73
58662;BME280;44432;49.786;22.760;2023-04-23T00:54:39;99188.64;;;4.73;74.77
58662;BME280;44432;49.786;22.760;2023-04-23T00:57:09;99189.61;;;4.69;74.83
58662;BME280;44432;49.786;22.760;2023-04-23T00:59:41;99189.95;;;4.65;75.05
58662;BME280;44432;49.786;22.760;2023-04-23T01:02:12;99187.34;;;4.60;75.26
58662;BME280;44432;49.786;22.760;2023-04-23T01:04:44;99185.64;;;4.57;75.31
58662;BME280;44432;49.786;22.760;2023-04-23T01:07:15;99183.94;;;4.56;75.49
58662;BME280;44432;49.786;22.760;2023-04-23T01:09:47;99184.52;;;4.54;75.24
58662;BME280;44432;49.786;22.760;2023-04-23T01:12:19;99185.17;;;4.53;75.73
58662;BME280;44432;49.786;22.760;2023-04-23T01:14:50;99186.59;;;4.51;75.65
58662;BME280;44432;49.786;22.760;2023-04-23T01:17:20;99185.90;;;4.48;75.75
58662;BME280;44432;49.786;22.760;2023-04-23T01:19:51;99184.39;;;4.45;75.72
58662;BME280;44432;49.786;22.760;2023-04-23T01:22:22;99185.98;;;4.42;75.69
58662;BME280;44432;49.786;22.760;2023-04-23T01:24:53;99184.86;;;4.40;75.79
58662;BME280;44432;49.786;22.760;2023-04-23T01:27:24;99178.33;;;4.34;75.74
58662;BME280;44432;49.786;22.760;2023-04-23T01:29:56;99181.44;;;4.33;75.81
58662;BME280;44432;49.786;22.760;2023-04-23T01:32:27;99182.30;;;4.28;75.89
58662;BME280;44432;49.786;22.760;2023-04-23T01:34:57;99180.22;;;4.25;76.08
58662;BME280;44432;49.786;22.760;2023-04-23T01:37:29;99181.74;;;4.22;76.19
58662;BME280;44432;49.786;22.760;2023-04-23T01:40:01;99182.57;;;4.21;76.47
58662;BME280;44432;49.786;22.760;2023-04-23T01:42:32;99182.64;;;4.19;76.25
58662;BME280;44432;49.786;22.760;2023-04-23T01:45:04;99185.50;;;4.16;76.52
58662;BME280;44432;49.786;22.760;2023-04-23T01:47:34;99184.67;;;4.14;76.55
58662;BME280;44432;49.786;22.760;2023-04-23T01:50:07;99182.84;;;4.10;76.80
58662;BME280;44432;49.786;22.760;2023-04-23T01:52:38;99188.04;;;4.09;76.91
58662;BME280;44432;49.786;22.760;2023-04-23T01:55:09;99188.58;;;4.05;77.01
58662;BME280;44432;49.786;22.760;2023-04-23T01:57:40;99186.64;;;4.03;76.68
58662;BME280;44432;49.786;22.760;2023-04-23T02:00:13;99184.63;;;4.00;77.08
58662;BME280;44432;49.786;22.760;2023-04-23T02:02:42;99185.89;;;3.97;77.13
58662;BME280;44432;49.786;22.760;2023-04-23T02:05:12;99190.00;;;3.91;77.19
58662;BME280;44432;49.786;22.760;2023-04-23T02:07:42;99190.79;;;3.86;77.15
58662;BME280;44432;49.786;22.760;2023-04-23T02:10:11;99190.52;;;3.84;77.26
58662;BME280;44432;49.786;22.760;2023-04-23T02:12:40;99189.46;;;3.80;77.52
58662;BME280;44432;49.786;22.760;2023-04-23T02:15:10;99185.95;;;3.78;77.39
58662;BME280;44432;49.786;22.760;2023-04-23T02:17:39;99186.30;;;3.75;77.45
58662;BME280;44432;49.786;22.760;2023-04-23T02:20:09;99186.45;;;3.70;77.44
58662;BME280;44432;49.786;22.760;2023-04-23T02:22:40;99185.33;;;3.67;77.76
58662;BME280;44432;49.786;22.760;2023-04-23T02:25:09;99184.06;;;3.64;77.57
58662;BME280;44432;49.786;22.760;2023-04-23T02:27:38;99182.91;;;3.60;77.65
58662;BME280;44432;49.786;22.760;2023-04-23T02:30:08;99182.63;;;3.56;77.69
58662;BME280;44432;49.786;22.760;2023-04-23T02:32:38;99179.19;;;3.52;78.13
58662;BME280;44432;49.786;22.760;2023-04-23T02:35:08;99183.50;;;3.50;78.12
58662;BME280;44432;49.786;22.760;2023-04-23T02:37:39;99181.85;;;3.47;78.01
58662;BME280;44432;49.786;22.760;2023-04-23T02:40:09;99177.73;;;3.45;78.14
58662;BME280;44432;49.786;22.760;2023-04-23T02:42:38;99181.08;;;3.44;78.37
58662;BME280;44432;49.786;22.760;2023-04-23T02:45:08;99180.70;;;3.42;78.60
58662;BME280;44432;49.786;22.760;2023-04-23T02:47:37;99181.87;;;3.41;78.48
58662;BME280;44432;49.786;22.760;2023-04-23T02:50:07;99184.02;;;3.41;78.69
58662;BME280;44432;49.786;22.760;2023-04-23T02:52:36;99180.48;;;3.40;78.69
58662;BME280;44432;49.786;22.760;2023-04-23T02:55:06;99185.04;;;3.39;78.99
58662;BME280;44432;49.786;22.760;2023-04-23T02:57:36;99185.23;;;3.39;78.67
58662;BME280;44432;49.786;22.760;2023-04-23T03:00:07;99183.19;;;3.37;78.88
58662;BME280;44432;49.786;22.760;2023-04-23T03:02:39;99188.00;;;3.34;78.86
58662;BME280;44432;49.786;22.760;2023-04-23T03:05:08;99186.56;;;3.32;78.64
58662;BME280;44432;49.786;22.760;2023-04-23T03:07:37;99186.06;;;3.28;78.66
58662;BME280;44432;49.786;22.760;2023-04-23T03:10:07;99188.18;;;3.26;78.93
58662;BME280;44432;49.786;22.760;2023-04-23T03:12:36;99191.38;;;3.26;78.81
58662;BME280;44432;49.786;22.760;2023-04-23T03:15:08;99187.60;;;3.23;79.08
58662;BME280;44432;49.786;22.760;2023-04-23T03:17:38;99187.15;;;3.21;78.91
58662;BME280;44432;49.786;22.760;2023-04-23T03:20:10;99186.15;;;3.19;78.86
58662;BME280;44432;49.786;22.760;2023-04-23T03:22:39;99186.73;;;3.19;79.13
58662;BME280;44432;49.786;22.760;2023-04-23T03:25:08;99191.73;;;3.19;78.94
58662;BME280;44432;49.786;22.760;2023-04-23T03:27:38;99187.39;;;3.18;79.01
58662;BME280;44432;49.786;22.760;2023-04-23T03:30:08;99190.75;;;3.17;79.38
58662;BME280;44432;49.786;22.760;2023-04-23T03:32:38;99191.16;;;3.18;79.52
58662;BME280;44432;49.786;22.760;2023-04-23T03:35:07;99187.58;;;3.19;79.56
58662;BME280;44432;49.786;22.760;2023-04-23T03:37:37;99189.02;;;3.18;79.33
58662;BME280;44432;49.786;22.760;2023-04-23T03:40:07;99186.95;;;3.20;79.71
58662;BME280;44432;49.786;22.760;2023-04-23T03:42:36;99187.70;;;3.21;79.65
58662;BME280;44432;49.786;22.760;2023-04-23T03:45:06;99186.80;;;3.22;79.65
58662;BME280;44432;49.786;22.760;2023-04-23T03:47:36;99183.73;;;3.22;79.83
58662;BME280;44432;49.786;22.760;2023-04-23T03:50:06;99185.58;;;3.25;79.94
58662;BME280;44432;49.786;22.760;2023-04-23T03:52:35;99186.41;;;3.26;79.66
58662;BME280;44432;49.786;22.760;2023-04-23T03:55:05;99184.33;;;3.28;79.76
58662;BME280;44432;49.786;22.760;2023-04-23T03:57:35;99186.15;;;3.31;79.72
58662;BME280;44432;49.786;22.760;2023-04-23T04:00:05;99186.14;;;3.34;79.70
58662;BME280;44432;49.786;22.760;2023-04-23T04:02:38;99186.00;;;3.37;79.68
58662;BME280;44432;49.786;22.760;2023-04-23T04:05:08;99188.77;;;3.37;79.47
58662;BME280;44432;49.786;22.760;2023-04-23T04:07:37;99189.52;;;3.38;79.66
58662;BME280;44432;49.786;22.760;2023-04-23T04:10:07;99185.89;;;3.39;79.31
58662;BME280;44432;49.786;22.760;2023-04-23T04:12:36;99186.41;;;3.41;79.69
58662;BME280;44432;49.786;22.760;2023-04-23T04:15:07;99185.67;;;3.44;79.54
58662;BME280;44432;49.786;22.760;2023-04-23T04:17:36;99186.21;;;3.49;79.31
58662;BME280;44432;49.786;22.760;2023-04-23T04:20:06;99189.52;;;3.53;79.34
58662;BME280;44432;49.786;22.760;2023-04-23T04:22:36;99190.11;;;3.59;79.61
58662;BME280;44432;49.786;22.760;2023-04-23T04:25:06;99188.99;;;3.63;79.40
58662;BME280;44432;49.786;22.760;2023-04-23T04:27:36;99192.14;;;3.68;79.53
58662;BME280;44432;49.786;22.760;2023-04-23T04:30:07;99191.77;;;3.71;79.56
58662;BME280;44432;49.786;22.760;2023-04-23T04:32:36;99190.66;;;3.76;79.20
58662;BME280;44432;49.786;22.760;2023-04-23T04:35:06;99189.20;;;3.81;79.21
58662;BME280;44432;49.786;22.760;2023-04-23T04:37:36;99189.23;;;3.87;79.37
58662;BME280;44432;49.786;22.760;2023-04-23T04:40:06;99192.02;;;3.92;79.32
58662;BME280;44432;49.786;22.760;2023-04-23T04:42:35;99190.52;;;3.98;79.34
58662;BME280;44432;49.786;22.760;2023-04-23T04:45:05;99190.77;;;4.03;78.98
58662;BME280;44432;49.786;22.760;2023-04-23T04:47:35;99190.67;;;4.10;79.03
58662;BME280;44432;49.786;22.760;2023-04-23T04:50:05;99189.07;;;4.18;79.21
58662;BME280;44432;49.786;22.760;2023-04-23T04:52:34;99190.80;;;4.25;79.18
58662;BME280;44432;49.786;22.760;2023-04-23T04:55:04;99189.06;;;4.32;78.83
58662;BME280;44432;49.786;22.760;2023-04-23T04:57:33;99189.57;;;4.40;78.93
58662;BME280;44432;49.786;22.760;2023-04-23T05:00:11;99188.89;;;4.45;78.99
58662;BME280;44432;49.786;22.760;2023-04-23T05:02:47;99187.17;;;4.52;78.56
58662;BME280;44432;49.786;22.760;2023-04-23T05:05:17;99185.88;;;4.59;78.70
58662;BME280;44432;49.786;22.760;2023-04-23T05:07:46;99186.52;;;4.72;78.75
58662;BME280;44432;49.786;22.760;2023-04-23T05:10:16;99189.92;;;4.83;78.53
58662;BME280;44432;49.786;22.760;2023-04-23T05:12:45;99183.41;;;4.94;78.59
58662;BME280;44432;49.786;22.760;2023-04-23T05:15:14;99179.20;;;5.06;78.33
58662;BME280;44432;49.786;22.760;2023-04-23T05:17:44;99176.20;;;5.20;78.32
58662;BME280;44432;49.786;22.760;2023-04-23T05:20:13;99175.67;;;5.33;78.30
58662;BME280;44432;49.786;22.760;2023-04-23T05:22:42;99175.23;;;5.47;78.28
58662;BME280;44432;49.786;22.760;2023-04-23T05:25:11;99175.91;;;5.60;77.84
58662;BME280;44432;49.786;22.760;2023-04-23T05:27:40;99176.00;;;5.74;77.87
58662;BME280;44432;49.786;22.760;2023-04-23T05:30:10;99176.36;;;5.87;77.80
58662;BME280;44432;49.786;22.760;2023-04-23T05:32:39;99169.49;;;5.99;77.61
58662;BME280;44432;49.786;22.760;2023-04-23T05:35:08;99168.59;;;6.13;77.48
58662;BME280;44432;49.786;22.760;2023-04-23T05:37:38;99168.14;;;6.27;77.09
58662;BME280;44432;49.786;22.760;2023-04-23T05:40:07;99167.34;;;6.41;76.88
58662;BME280;44432;49.786;22.760;2023-04-23T05:42:36;99169.39;;;6.54;76.98
58662;BME280;44432;49.786;22.760;2023-04-23T05:45:06;99166.73;;;6.67;76.78
58662;BME280;44432;49.786;22.760;2023-04-23T05:47:36;99163.67;;;6.80;76.29
58662;BME280;44432;49.786;22.760;2023-04-23T05:50:06;99165.83;;;6.94;76.04
58662;BME280;44432;49.786;22.760;2023-04-23T05:52:35;99164.95;;;7.09;75.66
58662;BME280;44432;49.786;22.760;2023-04-23T05:55:05;99163.02;;;7.25;75.40
58662;BME280;44432;49.786;22.760;2023-04-23T05:57:34;99166.02;;;7.44;74.91
58662;BME280;44432;49.786;22.760;2023-04-23T06:00:04;99163.16;;;7.64;74.76
58662;BME280;44432;49.786;22.760;2023-04-23T06:02:36;99158.89;;;7.82;73.93
58662;BME280;44432;49.786;22.760;2023-04-23T06:05:05;99157.01;;;8.01;73.80
58662;BME280;44432;49.786;22.760;2023-04-23T06:07:35;99153.73;;;8.19;73.19
58662;BME280;44432;49.786;22.760;2023-04-23T06:10:04;99157.56;;;8.38;72.79
58662;BME280;44432;49.786;22.760;2023-04-23T06:12:34;99154.21;;;8.57;72.75
58662;BME280;44432;49.786;22.760;2023-04-23T06:15:07;99154.29;;;8.78;72.01
58662;BME280;44432;49.786;22.760;2023-04-23T06:17:36;99153.20;;;8.99;71.63
58662;BME280;44432;49.786;22.760;2023-04-23T06:20:07;99153.58;;;9.20;71.36
58662;BME280;44432;49.786;22.760;2023-04-23T06:22:38;99156.17;;;9.39;70.81
58662;BME280;44432;49.786;22.760;2023-04-23T06:25:08;99151.60;;;9.60;70.72
58662;BME280;44432;49.786;22.760;2023-04-23T06:27:37;99151.90;;;9.83;70.09
58662;BME280;44432;49.786;22.760;2023-04-23T06:30:07;99152.83;;;10.07;69.72
58662;BME280;44432;49.786;22.760;2023-04-23T06:32:37;99149.02;;;10.30;69.22
58662;BME280;44432;49.786;22.760;2023-04-23T06:35:06;99147.00;;;10.52;68.72
58662;BME280;44432;49.786;22.760;2023-04-23T06:37:35;99150.50;;;10.71;68.22
58662;BME280;44432;49.786;22.760;2023-04-23T06:40:05;99149.91;;;10.92;67.77
58662;BME280;44432;49.786;22.760;2023-04-23T06:42:34;99142.86;;;11.10;67.24
58662;BME280;44432;49.786;22.760;2023-04-23T06:45:04;99141.58;;;11.29;66.45
58662;BME280;44432;49.786;22.760;2023-04-23T06:47:34;99138.11;;;11.48;66.02
58662;BME280;44432;49.786;22.760;2023-04-23T06:50:03;99135.91;;;11.69;65.17
58662;BME280;44432;49.786;22.760;2023-04-23T06:52:32;99129.64;;;11.91;64.74
58662;BME280;44432;49.786;22.760;2023-04-23T06:55:01;99128.26;;;12.10;64.04
58662;BME280;44432;49.786;22.760;2023-04-23T06:57:30;99126.13;;;12.31;63.25
58662;BME280;44432;49.786;22.760;2023-04-23T06:59:59;99120.83;;;12.51;62.51
58662;BME280;44432;49.786;22.760;2023-04-23T07:02:29;99120.88;;;12.69;61.98
58662;BME280;44432;49.786;22.760;2023-04-23T07:04:58;99123.02;;;12.84;61.40
58662;BME280;44432;49.786;22.760;2023-04-23T07:07:27;99118.98;;;12.98;60.53
58662;BME280;44432;49.786;22.760;2023-04-23T07:09:56;99116.38;;;13.12;59.80
58662;BME280;44432;49.786;22.760;2023-04-23T07:12:25;99116.72;;;13.27;59.00
58662;BME280;44432;49.786;22.760;2023-04-23T07:14:54;99117.53;;;13.43;58.35
58662;BME280;44432;49.786;22.760;2023-04-23T07:17:23;99114.48;;;13.63;57.99
58662;BME280;44432;49.786;22.760;2023-04-23T07:19:52;99116.62;;;13.80;57.56
58662;BME280;44432;49.786;22.760;2023-04-23T07:22:21;99116.11;;;13.98;56.94
58662;BME280;44432;49.786;22.760;2023-04-23T07:24:51;99115.26;;;14.16;56.27
58662;BME280;44432;49.786;22.760;2023-04-23T07:27:21;99111.95;;;14.33;55.95
58662;BME280;44432;49.786;22.760;2023-04-23T07:29:50;99112.82;;;14.54;55.81
58662;BME280;44432;49.786;22.760;2023-04-23T07:32:19;99111.84;;;14.75;55.06
58662;BME280;44432;49.786;22.760;2023-04-23T07:34:50;99109.27;;;14.92;54.63
58662;BME280;44432;49.786;22.760;2023-04-23T07:37:19;99107.22;;;15.09;54.03
58662;BME280;44432;49.786;22.760;2023-04-23T07:39:48;99105.36;;;15.25;53.71
58662;BME280;44432;49.786;22.760;2023-04-23T07:42:17;99104.02;;;15.37;53.46
58662;BME280;44432;49.786;22.760;2023-04-23T07:44:46;99101.04;;;15.50;53.28
58662;BME280;44432;49.786;22.760;2023-04-23T07:47:16;99096.43;;;15.66;52.90
58662;BME280;44432;49.786;22.760;2023-04-23T07:49:45;99087.45;;;15.79;52.63
58662;BME280;44432;49.786;22.760;2023-04-23T07:52:14;99090.56;;;15.96;52.13
58662;BME280;44432;49.786;22.760;2023-04-23T07:54:44;99086.87;;;16.12;51.78
58662;BME280;44432;49.786;22.760;2023-04-23T07:57:13;99083.11;;;16.27;51.59
58662;BME280;44432;49.786;22.760;2023-04-23T07:59:43;99085.17;;;16.44;51.07
58662;BME280;44432;49.786;22.760;2023-04-23T08:02:12;99085.61;;;16.60;50.68
58662;BME280;44432;49.786;22.760;2023-04-23T08:04:41;99081.54;;;16.73;50.30
58662;BME280;44432;49.786;22.760;2023-04-23T08:07:10;99078.59;;;16.89;49.78
58662;BME280;44432;49.786;22.760;2023-04-23T08:09:41;99079.54;;;17.06;49.08
58662;BME280;44432;49.786;22.760;2023-04-23T08:12:10;99073.98;;;17.18;48.45
58662;BME280;44432;49.786;22.760;2023-04-23T08:14:39;99075.74;;;17.27;47.67
58662;BME280;44432;49.786;22.760;2023-04-23T08:17:08;99076.99;;;17.35;47.47
58662;BME280;44432;49.786;22.760;2023-04-23T08:19:37;99070.25;;;17.44;47.51
58662;BME280;44432;49.786;22.760;2023-04-23T08:22:07;99072.16;;;17.57;47.34
58662;BME280;44432;49.786;22.760;2023-04-23T08:24:37;99065.85;;;17.72;46.26
58662;BME280;44432;49.786;22.760;2023-04-23T08:27:06;99066.19;;;17.85;45.77
58662;BME280;44432;49.786;22.760;2023-04-23T08:29:35;99064.51;;;18.01;45.46
58662;BME280;44432;49.786;22.760;2023-04-23T08:32:04;99064.95;;;18.15;45.02
58662;BME280;44432;49.786;22.760;2023-04-23T08:34:33;99058.48;;;18.29;44.69
58662;BME280;44432;49.786;22.760;2023-04-23T08:37:02;99058.78;;;18.45;44.21
58662;BME280;44432;49.786;22.760;2023-04-23T08:39:33;99057.77;;;18.58;42.57
58662;BME280;44432;49.786;22.760;2023-04-23T08:42:04;99057.55;;;18.70;41.32
58662;BME280;44432;49.786;22.760;2023-04-23T08:44:36;99051.46;;;18.77;40.83
58662;BME280;44432;49.786;22.760;2023-04-23T08:47:06;99051.51;;;18.80;40.84
58662;BME280;44432;49.786;22.760;2023-04-23T08:49:35;99050.48;;;18.87;40.68
58662;BME280;44432;49.786;22.760;2023-04-23T08:52:07;99045.15;;;18.93;40.14
58662;BME280;44432;49.786;22.760;2023-04-23T08:54:41;99038.51;;;18.99;39.56
58662;BME280;44432;49.786;22.760;2023-04-23T08:57:13;99037.26;;;19.05;39.27
58662;BME280;44432;49.786;22.760;2023-04-23T08:59:44;99040.34;;;19.10;38.81
58662;BME280;44432;49.786;22.760;2023-04-23T09:02:13;99038.23;;;19.15;38.43
58662;BME280;44432;49.786;22.760;2023-04-23T09:04:45;99035.53;;;19.21;38.45
58662;BME280;44432;49.786;22.760;2023-04-23T09:07:15;99030.52;;;19.28;37.93
58662;BME280;44432;49.786;22.760;2023-04-23T09:09:44;99029.70;;;19.33;37.31
58662;BME280;44432;49.786;22.760;2023-04-23T09:12:13;99033.70;;;19.36;36.81
58662;BME280;44432;49.786;22.760;2023-04-23T09:14:43;99031.22;;;19.38;37.10
58662;BME280;44432;49.786;22.760;2023-04-23T09:17:12;99028.88;;;19.45;37.21
58662;BME280;44432;49.786;22.760;2023-04-23T09:19:41;99026.51;;;19.53;37.29
58662;BME280;44432;49.786;22.760;2023-04-23T09:22:10;99022.86;;;19.64;37.43
58662;BME280;44432;49.786;22.760;2023-04-23T09:24:41;99019.15;;;19.73;36.97
58662;BME280;44432;49.786;22.760;2023-04-23T09:27:10;99019.21;;;19.83;36.76
58662;BME280;44432;49.786;22.760;2023-04-23T09:29:40;99012.95;;;19.90;36.18
58662;BME280;44432;49.786;22.760;2023-04-23T09:32:12;99005.59;;;19.92;35.09
58662;BME280;44432;49.786;22.760;2023-04-23T09:34:41;99011.08;;;19.89;34.74
58662;BME280;44432;49.786;22.760;2023-04-23T09:37:10;99012.42;;;19.90;34.48
58662;BME280;44432;49.786;22.760;2023-04-23T09:39:41;99012.38;;;19.88;34.41
58662;BME280;44432;49.786;22.760;2023-04-23T09:42:10;99011.88;;;19.89;34.34
58662;BME280;44432;49.786;22.760;2023-04-23T09:44:41;99008.15;;;19.94;34.71
58662;BME280;44432;49.786;22.760;2023-04-23T09:47:10;99008.65;;;20.06;34.51
58662;BME280;44432;49.786;22.760;2023-04-23T09:49:48;99006.35;;;20.17;34.23
58662;BME280;44432;49.786;22.760;2023-04-23T09:52:17;99005.74;;;20.25;33.72
58662;BME280;44432;49.786;22.760;2023-04-23T09:54:47;99000.72;;;20.29;33.49
58662;BME280;44432;49.786;22.760;2023-04-23T09:57:17;98999.90;;;20.37;33.34
58662;BME280;44432;49.786;22.760;2023-04-23T09:59:46;98995.48;;;20.46;33.47
58662;BME280;44432;49.786;22.760;2023-04-23T10:02:15;98991.08;;;20.52;32.86
58662;BME280;44432;49.786;22.760;2023-04-23T10:04:47;98985.30;;;20.57;32.72
58662;BME280;44432;49.786;22.760;2023-04-23T10:07:18;98978.45;;;20.60;32.52
58662;BME280;44432;49.786;22.760;2023-04-23T10:09:47;98981.31;;;20.64;32.28
58662;BME280;44432;49.786;22.760;2023-04-23T10:12:16;98974.33;;;20.69;32.29
58662;BME280;44432;49.786;22.760;2023-04-23T10:14:47;98965.30;;;20.75;32.40
58662;BME280;44432;49.786;22.760;2023-04-23T10:17:20;98962.34;;;20.82;32.51
58662;BME280;44432;49.786;22.760;2023-04-23T10:19:49;98959.47;;;20.88;32.24
58662;BME280;44432;49.786;22.760;2023-04-23T10:22:20;98958.16;;;20.89;31.80
58662;BME280;44432;49.786;22.760;2023-04-23T10:24:50;98955.41;;;20.92;31.92
58662;BME280;44432;49.786;22.760;2023-04-23T10:27:22;98950.77;;;20.94;31.53
58662;BME280;44432;49.786;22.760;2023-04-23T10:29:54;98949.72;;;20.96;31.14
58662;BME280;44432;49.786;22.760;2023-04-23T10:32:24;98944.33;;;20.98;31.23
58662;BME280;44432;49.786;22.760;2023-04-23T10:34:55;98941.85;;;21.02;31.40
58662;BME280;44432;49.786;22.760;2023-04-23T10:37:24;98938.55;;;21.08;31.15
58662;BME280;44432;49.786;22.760;2023-04-23T10:39:54;98935.41;;;21.13;31.19
58662;BME280;44432;49.786;22.760;2023-04-23T10:42:23;98929.82;;;21.18;30.74
58662;BME280;44432;49.786;22.760;2023-04-23T10:44:54;98929.88;;;21.23;30.91
58662;BME280;44432;49.786;22.760;2023-04-23T10:47:24;98930.37;;;21.31;30.66
58662;BME280;44432;49.786;22.760;2023-04-23T10:49:53;98927.67;;;21.39;30.50
58662;BME280;44432;49.786;22.760;2023-04-23T10:52:22;98930.29;;;21.47;30.66
58662;BME280;44432;49.786;22.760;2023-04-23T10:54:56;98926.74;;;21.50;30.25
58662;BME280;44432;49.786;22.760;2023-04-23T10:57:26;98919.77;;;21.49;29.83
58662;BME280;44432;49.786;22.760;2023-04-23T10:59:55;98922.52;;;21.52;30.17
58662;BME280;44432;49.786;22.760;2023-04-23T11:02:25;98918.98;;;21.63;30.35
58662;BME280;44432;49.786;22.760;2023-04-23T11:04:55;98912.30;;;21.77;30.34
58662;BME280;44432;49.786;22.760;2023-04-23T11:07:30;98910.92;;;21.93;30.44
58662;BME280;44432;49.786;22.760;2023-04-23T11:10:00;98913.02;;;22.07;29.90
58662;BME280;44432;49.786;22.760;2023-04-23T11:12:38;98911.27;;;22.17;30.06
58662;BME280;44432;49.786;22.760;2023-04-23T11:15:11;98909.29;;;22.28;30.07
58662;BME280;44432;49.786;22.760;2023-04-23T11:20:23;98895.23;;;22.48;29.43
58662;BME280;44432;49.786;22.760;2023-04-23T11:22:52;98894.48;;;22.56;29.08
58662;BME280;44432;49.786;22.760;2023-04-23T11:25:23;98890.30;;;22.58;28.79
58662;BME280;44432;49.786;22.760;2023-04-23T11:27:53;98894.98;;;22.65;29.20
58662;BME280;44432;49.786;22.760;2023-04-23T11:30:23;98892.83;;;22.73;28.73
58662;BME280;44432;49.786;22.760;2023-04-23T11:32:53;98887.41;;;22.75;28.59
58662;BME280;44432;49.786;22.760;2023-04-23T11:35:23;98887.39;;;22.80;28.99
58662;BME280;44432;49.786;22.760;2023-04-23T11:37:55;98888.06;;;22.93;28.84
58662;BME280;44432;49.786;22.760;2023-04-23T11:40:24;98885.63;;;23.00;28.61
58662;BME280;44432;49.786;22.760;2023-04-23T11:42:57;98887.41;;;23.05;28.08
58662;BME280;44432;49.786;22.760;2023-04-23T11:45:26;98888.42;;;23.12;28.29
58662;BME280;44432;49.786;22.760;2023-04-23T11:47:56;98883.69;;;23.26;28.23
58662;BME280;44432;49.786;22.760;2023-04-23T11:50:26;98875.33;;;23.31;27.92
58662;BME280;44432;49.786;22.760;2023-04-23T11:52:55;98877.09;;;23.39;27.73
58662;BME280;44432;49.786;22.760;2023-04-23T11:55:24;98873.44;;;23.41;27.71
58662;BME280;44432;49.786;22.760;2023-04-23T11:57:55;98874.73;;;23.38;26.97
58662;BME280;44432;49.786;22.760;2023-04-23T12:00:25;98871.39;;;23.30;27.21
58662;BME280;44432;49.786;22.760;2023-04-23T12:02:55;98871.92;;;23.27;27.40
58662;BME280;44432;49.786;22.760;2023-04-23T12:05:27;98874.38;;;23.28;27.46
58662;BME280;44432;49.786;22.760;2023-04-23T12:08:06;98870.58;;;23.32;27.24
58662;BME280;44432;49.786;22.760;2023-04-23T12:10:43;98872.84;;;23.41;27.34
58662;BME280;44432;49.786;22.760;2023-04-23T12:13:17;98868.35;;;23.48;27.13
58662;BME280;44432;49.786;22.760;2023-04-23T12:15:47;98864.70;;;23.49;27.24
58662;BME280;44432;49.786;22.760;2023-04-23T12:18:17;98867.55;;;23.58;27.21
58662;BME280;44432;49.786;22.760;2023-04-23T12:20:47;98863.57;;;23.64;26.70
58662;BME280;44432;49.786;22.760;2023-04-23T12:23:16;98857.80;;;23.66;26.70
58662;BME280;44432;49.786;22.760;2023-04-23T12:25:45;98852.36;;;23.59;26.44
58662;BME280;44432;49.786;22.760;2023-04-23T12:28:14;98855.64;;;23.58;26.55
58662;BME280;44432;49.786;22.760;2023-04-23T12:30:43;98854.41;;;23.57;26.19
58662;BME280;44432;49.786;22.760;2023-04-23T12:33:12;98851.77;;;23.52;26.11
58662;BME280;44432;49.786;22.760;2023-04-23T12:35:42;98848.17;;;23.47;26.18
58662;BME280;44432;49.786;22.760;2023-04-23T12:38:21;98846.23;;;23.46;26.44
58662;BME280;44432;49.786;22.760;2023-04-23T12:40:51;98843.77;;;23.56;26.98
58662;BME280;44432;49.786;22.760;2023-04-23T12:43:20;98844.27;;;23.71;26.94
58662;BME280;44432;49.786;22.760;2023-04-23T12:45:49;98842.23;;;23.83;26.64
58662;BME280;44432;49.786;22.760;2023-04-23T12:48:19;98843.57;;;23.94;26.59
58662;BME280;44432;49.786;22.760;2023-04-23T12:50:48;98840.02;;;23.98;26.00
58662;BME280;44432;49.786;22.760;2023-04-23T12:53:17;98833.39;;;23.97;26.15
58662;BME280;44432;49.786;22.760;2023-04-23T12:55:46;98837.09;;;23.96;25.71
58662;BME280;44432;49.786;22.760;2023-04-23T12:58:16;98832.85;;;23.84;25.44
58662;BME280;44432;49.786;22.760;2023-04-23T13:00:45;98830.02;;;23.77;25.21
58662;BME280;44432;49.786;22.760;2023-04-23T13:03:14;98826.74;;;23.68;25.31
58662;BME280;44432;49.786;22.760;2023-04-23T13:05:45;98826.03;;;23.65;25.53
58662;BME280;44432;49.786;22.760;2023-04-23T13:08:15;98819.95;;;23.66;26.14
58662;BME280;44432;49.786;22.760;2023-04-23T13:10:44;98818.42;;;23.71;26.05
58662;BME280;44432;49.786;22.760;2023-04-23T13:13:13;98816.48;;;23.74;25.85